createdAt,value
2017-10-28T00:00:57.773Z,1024.41
2017-10-28T00:02:06.767Z,1024.44
2017-10-28T00:03:16.404Z,1024.44
2017-10-28T00:04:25.398Z,1024.43
2017-10-28T00:05:34.575Z,1024.42
2017-10-28T00:06:43.603Z,1024.41
2017-10-28T00:07:52.916Z,1024.38
2017-10-28T00:09:01.936Z,1024.36
2017-10-28T00:10:11.093Z,1024.34
2017-10-28T00:11:21.080Z,1024.33
2017-10-28T00:12:30.075Z,1024.34
2017-10-28T00:13:39.053Z,1024.31
2017-10-28T00:14:48.374Z,1024.31
2017-10-28T00:15:57.703Z,1024.3
2017-10-28T00:17:07.024Z,1024.31
2017-10-28T00:18:16.676Z,1024.3
2017-10-28T00:19:26.002Z,1024.25
2017-10-28T00:20:35.634Z,1024.26
2017-10-28T00:21:44.628Z,1024.27
2017-10-28T00:22:53.591Z,1024.23
2017-10-28T00:24:02.241Z,1024.27
2017-10-28T00:25:11.721Z,1024.25
2017-10-28T00:26:20.718Z,1024.19
2017-10-28T00:27:29.717Z,1024.16
2017-10-28T00:28:38.731Z,1024.15
2017-10-28T00:29:48.047Z,1024.2
2017-10-28T00:30:57.117Z,1024.16
2017-10-28T00:32:06.091Z,1024.14
2017-10-28T00:33:15.741Z,1024.14
2017-10-28T00:34:24.398Z,1024.14
2017-10-28T00:35:33.069Z,1024.13
2017-10-28T00:36:41.724Z,1024.11
2017-10-28T00:37:50.387Z,1024.11
2017-10-28T00:38:59.771Z,1024.09
2017-10-28T00:40:09.434Z,1024.08
2017-10-28T00:41:18.417Z,1024.11
2017-10-28T00:42:27.099Z,1024.12
2017-10-28T00:43:36.081Z,1024.15
2017-10-28T00:44:45.426Z,1024.13
2017-10-28T00:45:54.412Z,1024.14
2017-10-28T00:47:03.418Z,1024.13
2017-10-28T00:48:12.475Z,1024.11
2017-10-28T00:49:21.824Z,1024.09
2017-10-28T00:50:30.810Z,1024.08
2017-10-28T00:51:39.842Z,1024.07
2017-10-28T00:52:48.841Z,1024.01
2017-10-28T00:53:57.596Z,1024.02
2017-10-28T00:55:06.944Z,1024.05
2017-10-28T00:56:16.588Z,1023.98
2017-10-28T00:57:26.239Z,1023.96
2017-10-28T00:58:35.554Z,1023.97
2017-10-28T00:59:44.232Z,1023.91
2017-10-28T01:00:52.900Z,1023.91
2017-10-28T01:02:02.249Z,1023.84
2017-10-28T01:03:11.244Z,1023.86
2017-10-28T01:04:20.573Z,1023.84
2017-10-28T01:05:30.230Z,1023.84
2017-10-28T01:06:39.220Z,1023.83
2017-10-28T01:07:47.882Z,1023.88
2017-10-28T01:08:56.882Z,1023.86
2017-10-28T01:10:06.541Z,1023.82
2017-10-28T01:11:15.205Z,1023.84
2017-10-28T01:12:24.181Z,1023.82
2017-10-28T01:13:33.160Z,1023.81
2017-10-28T01:14:41.806Z,1023.8
2017-10-28T01:15:50.783Z,1023.78
2017-10-28T01:17:00.110Z,1023.76
2017-10-28T01:18:09.125Z,1023.76
2017-10-28T01:19:18.108Z,1023.74
2017-10-28T01:20:27.731Z,1023.72
2017-10-28T01:21:37.688Z,1023.66
2017-10-28T01:22:46.662Z,1023.62
2017-10-28T01:23:55.968Z,1023.61
2017-10-28T01:25:04.951Z,1023.54
2017-10-28T01:26:14.269Z,1023.51
2017-10-28T01:27:22.928Z,1023.54
2017-10-28T01:28:31.936Z,1023.62
2017-10-28T01:29:40.940Z,1023.59
2017-10-28T01:30:49.598Z,1023.56
2017-10-28T01:31:58.591Z,1023.55
2017-10-28T01:33:07.253Z,1023.56
2017-10-28T01:34:15.895Z,1023.54
2017-10-28T01:35:24.921Z,1023.53
2017-10-28T01:36:33.901Z,1023.49
2017-10-28T01:37:42.556Z,1023.5
2017-10-28T01:38:52.222Z,1023.49
2017-10-28T01:40:01.617Z,1023.53
2017-10-28T01:41:11.251Z,1023.48
2017-10-28T01:42:20.301Z,1023.42
2017-10-28T01:43:29.276Z,1023.37
2017-10-28T01:44:37.946Z,1023.37
2017-10-28T01:45:46.596Z,1023.38
2017-10-28T01:46:55.909Z,1023.37
2017-10-28T01:48:05.536Z,1023.35
2017-10-28T01:49:14.200Z,1023.3
2017-10-28T01:50:23.552Z,1023.32
2017-10-28T01:51:32.869Z,1023.3
2017-10-28T01:52:41.552Z,1023.28
2017-10-28T01:53:50.520Z,1023.27
2017-10-28T01:54:59.843Z,1023.23
2017-10-28T01:56:09.157Z,1023.17
2017-10-28T01:57:18.172Z,1023.17
2017-10-28T01:58:28.431Z,1023.16
2017-10-28T01:59:37.425Z,1023.13
2017-10-28T02:00:46.425Z,1023.15
2017-10-28T02:01:55.731Z,1023.12
2017-10-28T02:03:04.411Z,1023.09
2017-10-28T02:04:13.384Z,1023.06
2017-10-28T02:05:22.707Z,1023
2017-10-28T02:06:31.374Z,1022.98
2017-10-28T02:07:41.012Z,1022.99
2017-10-28T02:08:49.996Z,1022.96
2017-10-28T02:09:59.292Z,1022.97
2017-10-28T02:11:07.944Z,1022.91
2017-10-28T02:12:16.942Z,1022.92
2017-10-28T02:13:25.949Z,1022.96
2017-10-28T02:14:35.030Z,1022.95
2017-10-28T02:15:44.974Z,1022.9
2017-10-28T02:16:54.282Z,1022.87
2017-10-28T02:18:03.272Z,1022.84
2017-10-28T02:19:13.249Z,1022.82
2017-10-28T02:20:22.008Z,1022.85
2017-10-28T02:21:31.310Z,1022.8
2017-10-28T02:22:39.970Z,1022.77
2017-10-28T02:23:48.948Z,1022.76
2017-10-28T02:24:57.605Z,1022.73
2017-10-28T02:26:06.277Z,1022.72
2017-10-28T02:27:14.919Z,1022.7
2017-10-28T02:28:23.910Z,1022.69
2017-10-28T02:29:32.622Z,1022.63
2017-10-28T02:30:41.625Z,1022.64
2017-10-28T02:31:50.592Z,1022.6
2017-10-28T02:32:59.564Z,1022.58
2017-10-28T02:34:09.227Z,1022.56
2017-10-28T02:35:18.964Z,1022.56
2017-10-28T02:36:27.617Z,1022.51
2017-10-28T02:37:36.296Z,1022.5
2017-10-28T02:38:45.309Z,1022.46
2017-10-28T02:39:54.334Z,1022.47
2017-10-28T02:41:03.019Z,1022.42
2017-10-28T02:42:11.683Z,1022.42
2017-10-28T02:43:20.676Z,1022.43
2017-10-28T02:44:30.050Z,1022.41
2017-10-28T02:45:38.708Z,1022.39
2017-10-28T02:46:47.699Z,1022.39
2017-10-28T02:47:56.724Z,1022.38
2017-10-28T02:49:05.398Z,1022.42
2017-10-28T02:50:14.725Z,1022.41
2017-10-28T02:51:23.716Z,1022.35
2017-10-28T02:52:32.697Z,1022.37
2017-10-28T02:53:41.681Z,1022.35
2017-10-28T02:54:51.003Z,1022.28
2017-10-28T02:55:59.982Z,1022.21
2017-10-28T02:57:08.654Z,1022.2
2017-10-28T02:58:18.316Z,1022.15
2017-10-28T02:59:27.950Z,1022.13
2017-10-28T03:00:36.947Z,1022.16
2017-10-28T03:01:46.274Z,1022.16
2017-10-28T03:02:55.258Z,1022.17
2017-10-28T03:04:04.239Z,1022.16
2017-10-28T03:05:13.553Z,1022.16
2017-10-28T03:06:23.282Z,1022.13
2017-10-28T03:07:32.250Z,1022.1
2017-10-28T03:08:40.902Z,1022.17
2017-10-28T03:09:50.222Z,1022.15
2017-10-28T03:10:59.556Z,1022.15
2017-10-28T03:12:08.219Z,1022.12
2017-10-28T03:13:17.235Z,1022.14
2017-10-28T03:14:26.199Z,1022.08
2017-10-28T03:15:35.835Z,1022.03
2017-10-28T03:16:44.819Z,1022.02
2017-10-28T03:17:53.900Z,1022.02
2017-10-28T03:19:03.213Z,1021.97
2017-10-28T03:20:12.854Z,1021.96
2017-10-28T03:21:21.833Z,1021.97
2017-10-28T03:22:30.505Z,1021.94
2017-10-28T03:23:39.517Z,1021.89
2017-10-28T03:24:48.184Z,1021.91
2017-10-28T03:25:58.166Z,1021.87
2017-10-28T03:27:07.503Z,1021.91
2017-10-28T03:28:16.154Z,1021.94
2017-10-28T03:29:25.466Z,1021.92
2017-10-28T03:30:34.109Z,1021.87
2017-10-28T03:31:43.088Z,1021.85
2017-10-28T03:32:52.417Z,1021.83
2017-10-28T03:34:01.048Z,1021.8
2017-10-28T03:35:10.478Z,1021.81
2017-10-28T03:36:19.466Z,1021.8
2017-10-28T03:37:28.115Z,1021.76
2017-10-28T03:38:37.108Z,1021.65
2017-10-28T03:39:46.427Z,1021.59
2017-10-28T03:40:55.742Z,1021.6
2017-10-28T03:42:04.431Z,1021.63
2017-10-28T03:43:13.444Z,1021.57
2017-10-28T03:44:22.754Z,1021.55
2017-10-28T03:45:31.735Z,1021.53
2017-10-28T03:46:40.399Z,1021.48
2017-10-28T03:47:49.390Z,1021.4
2017-10-28T03:48:58.406Z,1021.38
2017-10-28T03:50:07.376Z,1021.39
2017-10-28T03:51:16.345Z,1021.33
2017-10-28T03:52:25.670Z,1021.3
2017-10-28T03:53:34.689Z,1021.31
2017-10-28T03:54:43.677Z,1021.3
2017-10-28T03:55:52.658Z,1021.29
2017-10-28T03:57:01.309Z,1021.28
2017-10-28T03:58:10.289Z,1021.26
2017-10-28T03:59:19.274Z,1021.15
2017-10-28T04:00:28.260Z,1021.19
2017-10-28T04:01:38.248Z,1021.21
2017-10-28T04:02:46.897Z,1021.21
2017-10-28T04:03:55.984Z,1021.2
2017-10-28T04:05:04.658Z,1021.21
2017-10-28T04:06:14.307Z,1021.17
2017-10-28T04:07:23.619Z,1021.2
2017-10-28T04:08:32.912Z,1021.21
2017-10-28T04:09:42.372Z,1021.14
2017-10-28T04:10:51.350Z,1021.08
2017-10-28T04:12:00.659Z,1021.01
2017-10-28T04:13:10.291Z,1020.96
2017-10-28T04:14:19.944Z,1020.87
2017-10-28T04:15:28.714Z,1020.82
2017-10-28T04:16:37.702Z,1020.78
2017-10-28T04:17:46.697Z,1020.7
2017-10-28T04:18:55.681Z,1020.61
2017-10-28T04:20:04.678Z,1020.54
2017-10-28T04:21:13.658Z,1020.52
2017-10-28T04:22:22.974Z,1020.47
2017-10-28T04:23:32.289Z,1020.46
2017-10-28T04:24:41.270Z,1020.54
2017-10-28T04:25:50.602Z,1020.55
2017-10-28T04:26:59.576Z,1020.6
2017-10-28T04:28:08.891Z,1020.64
2017-10-28T04:29:17.868Z,1020.64
2017-10-28T04:30:26.541Z,1020.61
2017-10-28T04:31:35.518Z,1020.59
2017-10-28T04:32:44.602Z,1020.63
2017-10-28T04:33:53.905Z,1020.63
2017-10-28T04:35:02.908Z,1020.63
2017-10-28T04:36:11.901Z,1020.63
2017-10-28T04:37:20.885Z,1020.6
2017-10-28T04:38:30.204Z,1020.63
2017-10-28T04:39:39.184Z,1020.55
2017-10-28T04:40:48.160Z,1020.58
2017-10-28T04:41:57.491Z,1020.55
2017-10-28T04:43:06.787Z,1020.53
2017-10-28T04:44:16.111Z,1020.59
2017-10-28T04:45:24.768Z,1020.63
2017-10-28T04:46:33.426Z,1020.6
2017-10-28T04:47:42.426Z,1020.64
2017-10-28T04:48:51.095Z,1020.61
2017-10-28T04:49:59.874Z,1020.51
2017-10-28T04:51:09.890Z,1020.48
2017-10-28T04:52:18.901Z,1020.46
2017-10-28T04:53:27.557Z,1020.5
2017-10-28T04:54:36.923Z,1020.48
2017-10-28T04:55:45.904Z,1020.48
2017-10-28T04:56:55.547Z,1020.45
2017-10-28T04:58:05.198Z,1020.44
2017-10-28T04:59:14.178Z,1020.36
2017-10-28T05:00:23.513Z,1020.37
2017-10-28T05:01:33.154Z,1020.39
2017-10-28T05:02:41.813Z,1020.35
2017-10-28T05:03:50.797Z,1020.3
2017-10-28T05:05:00.109Z,1020.3
2017-10-28T05:06:09.409Z,1020.25
2017-10-28T05:07:18.123Z,1020.28
2017-10-28T05:08:27.429Z,1020.28
2017-10-28T05:09:36.750Z,1020.32
2017-10-28T05:10:45.737Z,1020.34
2017-10-28T05:11:54.736Z,1020.37
2017-10-28T05:13:04.147Z,1020.34
2017-10-28T05:14:13.142Z,1020.33
2017-10-28T05:15:21.829Z,1020.34
2017-10-28T05:16:31.188Z,1020.35
2017-10-28T05:17:39.844Z,1020.34
2017-10-28T05:18:48.836Z,1020.28
2017-10-28T05:19:58.791Z,1020.21
2017-10-28T05:21:07.840Z,1020.14
2017-10-28T05:22:16.806Z,1020.06
2017-10-28T05:23:26.468Z,1020.04
2017-10-28T05:24:35.460Z,1019.99
2017-10-28T05:25:44.778Z,1020.01
2017-10-28T05:26:53.775Z,1020.03
2017-10-28T05:28:02.445Z,1020.02
2017-10-28T05:29:12.549Z,1020.01
2017-10-28T05:30:21.966Z,1019.97
2017-10-28T05:31:30.967Z,1019.97
2017-10-28T05:32:39.955Z,1019.93
2017-10-28T05:33:49.268Z,1019.89
2017-10-28T05:34:58.584Z,1019.89
2017-10-28T05:36:07.893Z,1019.86
2017-10-28T05:37:16.882Z,1019.74
2017-10-28T05:38:25.891Z,1019.72
2017-10-28T05:39:34.876Z,1019.7
2017-10-28T05:40:44.560Z,1019.72
2017-10-28T05:41:54.699Z,1019.6
2017-10-28T05:43:03.461Z,1019.62
2017-10-28T05:44:12.113Z,1019.59
2017-10-28T05:45:21.486Z,1019.52
2017-10-28T05:46:30.494Z,1019.46
2017-10-28T05:47:39.508Z,1019.47
2017-10-28T05:48:48.178Z,1019.53
2017-10-28T05:49:57.580Z,1019.6
2017-10-28T05:51:06.904Z,1019.56
2017-10-28T05:52:15.571Z,1019.6
2017-10-28T05:53:24.877Z,1019.47
2017-10-28T05:54:34.186Z,1019.37
2017-10-28T05:55:43.490Z,1019.28
2017-10-28T05:56:52.142Z,1019.23
2017-10-28T05:58:02.116Z,1019.2
2017-10-28T05:59:11.528Z,1019.25
2017-10-28T06:00:20.871Z,1019.33
2017-10-28T06:01:30.193Z,1019.34
2017-10-28T06:02:38.859Z,1019.35
2017-10-28T06:03:47.849Z,1019.32
2017-10-28T06:04:56.517Z,1019.36
2017-10-28T06:06:05.153Z,1019.37
2017-10-28T06:07:14.167Z,1019.33
2017-10-28T06:08:23.196Z,1019.34
2017-10-28T06:09:31.919Z,1019.39
2017-10-28T06:10:41.062Z,1019.51
2017-10-28T06:11:50.389Z,1019.59
2017-10-28T06:13:00.377Z,1019.61
2017-10-28T06:14:09.799Z,1019.65
2017-10-28T06:15:18.696Z,1019.58
2017-10-28T06:16:28.006Z,1019.57
2017-10-28T06:17:37.658Z,1019.56
2017-10-28T06:18:46.987Z,1019.55
2017-10-28T06:19:55.624Z,1019.51
2017-10-28T06:21:04.948Z,1019.51
2017-10-28T06:22:13.702Z,1019.51
2017-10-28T06:23:23.025Z,1019.6
2017-10-28T06:24:32.661Z,1019.61
2017-10-28T06:25:41.693Z,1019.59
2017-10-28T06:26:50.693Z,1019.52
2017-10-28T06:28:00.428Z,1019.48
2017-10-28T06:29:09.403Z,1019.41
2017-10-28T06:30:19.099Z,1019.45
2017-10-28T06:31:28.413Z,1019.42
2017-10-28T06:32:37.073Z,1019.47
2017-10-28T06:33:46.828Z,1019.42
2017-10-28T06:34:55.575Z,1019.39
2017-10-28T06:36:05.207Z,1019.34
2017-10-28T06:37:15.085Z,1019.36
2017-10-28T06:38:24.385Z,1019.3
2017-10-28T06:39:33.164Z,1019.22
2017-10-28T06:40:42.473Z,1019.1
2017-10-28T06:41:52.228Z,1019.11
2017-10-28T06:43:01.257Z,1019.12
2017-10-28T06:44:10.064Z,1019.1
2017-10-28T06:45:18.813Z,1019.12
2017-10-28T06:46:28.465Z,1019.14
2017-10-28T06:47:37.736Z,1019.08
2017-10-28T06:48:48.008Z,1019.13
2017-10-28T06:49:57.843Z,1019.05
2017-10-28T06:51:07.759Z,1019
2017-10-28T06:52:16.724Z,1018.98
2017-10-28T06:53:25.937Z,1018.98
2017-10-28T06:54:34.892Z,1019.05
2017-10-28T06:55:44.237Z,1019.16
2017-10-28T06:56:53.211Z,1019.15
2017-10-28T06:58:01.889Z,1019.22
2017-10-28T06:59:11.535Z,1019.16
2017-10-28T07:00:20.202Z,1019.07
2017-10-28T07:01:29.232Z,1019.08
2017-10-28T07:02:38.557Z,1019.15
2017-10-28T07:03:47.593Z,1019.19
2017-10-28T07:04:57.318Z,1019.2
2017-10-28T07:06:06.945Z,1019.29
2017-10-28T07:07:17.491Z,1019.3
2017-10-28T07:08:26.501Z,1019.24
2017-10-28T07:09:35.153Z,1019.3
2017-10-28T07:10:44.540Z,1019.32
2017-10-28T07:11:53.876Z,1019.29
2017-10-28T07:13:03.409Z,1019.21
2017-10-28T07:14:12.467Z,1019.19
2017-10-28T07:15:21.508Z,1019.16
2017-10-28T07:16:30.213Z,1019.14
2017-10-28T07:17:38.964Z,1019.13
2017-10-28T07:18:48.298Z,1019.12
2017-10-28T07:19:57.033Z,1019.17
2017-10-28T07:21:06.063Z,1019.15
2017-10-28T07:22:15.060Z,1019.12
2017-10-28T07:23:24.066Z,1019.07
2017-10-28T07:24:33.142Z,1019.11
2017-10-28T07:25:42.135Z,1019.11
2017-10-28T07:26:51.157Z,1019.02
2017-10-28T07:28:00.151Z,1019.03
2017-10-28T07:29:09.469Z,1019.01
2017-10-28T07:30:18.453Z,1018.93
2017-10-28T07:31:27.120Z,1018.94
2017-10-28T07:32:35.801Z,1018.93
2017-10-28T07:33:44.491Z,1018.96
2017-10-28T07:34:53.208Z,1019.01
2017-10-28T07:36:01.914Z,1018.97
2017-10-28T07:37:11.261Z,1018.94
2017-10-28T07:38:19.946Z,1018.9
2017-10-28T07:39:29.294Z,1018.98
2017-10-28T07:40:38.474Z,1018.95
2017-10-28T07:41:47.819Z,1018.98
2017-10-28T07:42:56.817Z,1018.99
2017-10-28T07:44:05.811Z,1018.98
2017-10-28T07:45:14.817Z,1018.99
2017-10-28T07:46:24.495Z,1019.04
2017-10-28T07:47:33.195Z,1019
2017-10-28T07:48:42.176Z,1018.98
2017-10-28T07:49:51.153Z,1019.07
2017-10-28T07:51:00.148Z,1019
2017-10-28T07:52:09.466Z,1019.12
2017-10-28T07:53:18.462Z,1019.2
2017-10-28T07:54:27.436Z,1019.21
2017-10-28T07:55:36.102Z,1019.21
2017-10-28T07:56:45.128Z,1019.25
2017-10-28T07:57:54.129Z,1019.27
2017-10-28T07:59:03.134Z,1019.35
2017-10-28T08:00:12.451Z,1019.38
2017-10-28T08:01:21.573Z,1019.37
2017-10-28T08:02:30.589Z,1019.45
2017-10-28T08:03:39.583Z,1019.46
2017-10-28T08:04:49.289Z,1019.54
2017-10-28T08:05:58.287Z,1019.6
2017-10-28T08:07:07.635Z,1019.53
2017-10-28T08:08:16.609Z,1019.58
2017-10-28T08:09:25.925Z,1019.52
2017-10-28T08:10:35.274Z,1019.52
2017-10-28T08:11:44.317Z,1019.5
2017-10-28T08:12:53.698Z,1019.44
2017-10-28T08:14:03.023Z,1019.46
2017-10-28T08:15:12.424Z,1019.49
2017-10-28T08:16:21.115Z,1019.48
2017-10-28T08:17:29.769Z,1019.44
2017-10-28T08:18:38.835Z,1019.44
2017-10-28T08:19:48.293Z,1019.48
2017-10-28T08:20:58.004Z,1019.45
2017-10-28T08:22:07.072Z,1019.4
2017-10-28T08:23:16.589Z,1019.37
2017-10-28T08:24:25.679Z,1019.25
2017-10-28T08:25:34.749Z,1019.25
2017-10-28T08:26:43.422Z,1019.25
2017-10-28T08:27:53.077Z,1019.08
2017-10-28T08:29:02.456Z,1018.91
2017-10-28T08:30:12.443Z,1018.69
2017-10-28T08:31:21.466Z,1018.63
2017-10-28T08:32:30.789Z,1018.62
2017-10-28T08:33:40.288Z,1018.62
2017-10-28T08:34:48.962Z,1018.5
2017-10-28T08:35:57.960Z,1018.4
2017-10-28T08:37:07.772Z,1018.44
2017-10-28T08:38:17.420Z,1018.4
2017-10-28T08:39:26.081Z,1018.43
2017-10-28T08:40:35.738Z,1018.55
2017-10-28T08:41:44.716Z,1018.56
2017-10-28T08:42:54.034Z,1018.54
2017-10-28T08:44:03.352Z,1018.64
2017-10-28T08:45:12.386Z,1018.67
2017-10-28T08:46:21.776Z,1018.62
2017-10-28T08:47:31.155Z,1018.65
2017-10-28T08:48:40.466Z,1018.65
2017-10-28T08:49:49.848Z,1018.62
2017-10-28T08:50:59.142Z,1018.65
2017-10-28T08:52:08.141Z,1018.73
2017-10-28T08:53:17.460Z,1018.65
2017-10-28T08:54:26.786Z,1018.67
2017-10-28T08:55:35.847Z,1018.76
2017-10-28T08:56:44.843Z,1018.82
2017-10-28T08:57:53.537Z,1018.88
2017-10-28T08:59:02.538Z,1018.94
2017-10-28T09:00:11.529Z,1018.94
2017-10-28T09:01:20.856Z,1018.98
2017-10-28T09:02:30.517Z,1018.8
2017-10-28T09:03:39.528Z,1018.87
2017-10-28T09:04:48.852Z,1018.9
2017-10-28T09:05:58.573Z,1018.84
2017-10-28T09:07:07.895Z,1018.86
2017-10-28T09:08:18.061Z,1018.8
2017-10-28T09:09:27.768Z,1018.79
2017-10-28T09:10:36.827Z,1018.71
2017-10-28T09:11:46.785Z,1018.71
2017-10-28T09:12:56.110Z,1018.64
2017-10-28T09:14:04.894Z,1018.64
2017-10-28T09:15:13.881Z,1018.64
2017-10-28T09:16:22.871Z,1018.57
2017-10-28T09:17:32.238Z,1018.58
2017-10-28T09:18:40.897Z,1018.56
2017-10-28T09:19:50.223Z,1018.5
2017-10-28T09:20:59.224Z,1018.52
2017-10-28T09:22:08.220Z,1018.48
2017-10-28T09:23:17.893Z,1018.53
2017-10-28T09:24:27.208Z,1018.61
2017-10-28T09:25:36.197Z,1018.55
2017-10-28T09:26:45.517Z,1018.6
2017-10-28T09:27:54.196Z,1018.57
2017-10-28T09:29:03.163Z,1018.54
2017-10-28T09:30:12.817Z,1018.47
2017-10-28T09:31:21.797Z,1018.49
2017-10-28T09:32:30.442Z,1018.42
2017-10-28T09:33:40.492Z,1018.45
2017-10-28T09:34:49.477Z,1018.5
2017-10-28T09:35:58.169Z,1018.49
2017-10-28T09:37:07.186Z,1018.45
2017-10-28T09:38:16.488Z,1018.43
2017-10-28T09:39:25.196Z,1018.45
2017-10-28T09:40:33.853Z,1018.47
2017-10-28T09:41:42.826Z,1018.45
2017-10-28T09:42:52.143Z,1018.42
2017-10-28T09:44:00.801Z,1018.39
2017-10-28T09:45:09.787Z,1018.4
2017-10-28T09:46:19.163Z,1018.38
2017-10-28T09:47:27.862Z,1018.39
2017-10-28T09:48:37.626Z,1018.31
2017-10-28T09:49:46.287Z,1018.38
2017-10-28T09:50:55.863Z,1018.41
2017-10-28T09:52:04.860Z,1018.4
2017-10-28T09:53:14.201Z,1018.31
2017-10-28T09:54:23.353Z,1018.25
2017-10-28T09:55:32.389Z,1018.27
2017-10-28T09:56:41.706Z,1018.27
2017-10-28T09:57:50.413Z,1018.28
2017-10-28T09:58:59.456Z,1018.29
2017-10-28T10:00:09.100Z,1018.2
2017-10-28T10:01:18.434Z,1018.3
2017-10-28T10:02:27.778Z,1018.35
2017-10-28T10:03:36.457Z,1018.31
2017-10-28T10:04:45.448Z,1018.34
2017-10-28T10:05:54.802Z,1018.37
2017-10-28T10:07:04.516Z,1018.27
2017-10-28T10:08:14.272Z,1018.25
2017-10-28T10:09:23.723Z,1018.21
2017-10-28T10:10:33.083Z,1018.19
2017-10-28T10:11:42.552Z,1018.13
2017-10-28T10:12:51.781Z,1018.09
2017-10-28T10:14:01.596Z,1018.15
2017-10-28T10:15:11.111Z,1018.06
2017-10-28T10:16:20.768Z,1018.04
2017-10-28T10:17:30.672Z,1017.98
2017-10-28T10:18:40.168Z,1018.02
2017-10-28T10:19:49.622Z,1018.01
2017-10-28T10:20:58.984Z,1017.96
2017-10-28T10:22:07.870Z,1017.97
2017-10-28T10:23:17.096Z,1018.03
2017-10-28T10:24:26.525Z,1017.96
2017-10-28T10:25:36.073Z,1017.98
2017-10-28T10:26:46.283Z,1017.9
2017-10-28T10:27:55.353Z,1017.94
2017-10-28T10:29:04.946Z,1017.96
2017-10-28T10:30:14.904Z,1018
2017-10-28T10:31:24.845Z,1017.94
2017-10-28T10:32:33.753Z,1017.9
2017-10-28T10:33:43.173Z,1017.88
2017-10-28T10:34:52.569Z,1017.93
2017-10-28T10:36:01.743Z,1017.89
2017-10-28T10:37:11.338Z,1017.89
2017-10-28T10:38:20.349Z,1017.87
2017-10-28T10:39:29.161Z,1017.75
2017-10-28T10:40:38.206Z,1017.81
2017-10-28T10:41:48.148Z,1017.86
2017-10-28T10:42:57.937Z,1017.74
2017-10-28T10:44:09.023Z,1017.78
2017-10-28T10:45:17.860Z,1017.83
2017-10-28T10:46:27.134Z,1017.81
2017-10-28T10:47:36.545Z,1017.74
2017-10-28T10:48:46.016Z,1017.76
2017-10-28T10:49:54.960Z,1017.76
2017-10-28T10:51:03.891Z,1017.78
2017-10-28T10:52:12.929Z,1017.73
2017-10-28T10:53:22.634Z,1017.7
2017-10-28T10:54:31.669Z,1017.69
2017-10-28T10:55:41.308Z,1017.65
2017-10-28T10:56:50.564Z,1017.66
2017-10-28T10:58:00.101Z,1017.7
2017-10-28T10:59:09.147Z,1017.76
2017-10-28T11:00:19.294Z,1017.78
2017-10-28T11:01:28.345Z,1017.7
2017-10-28T11:02:37.795Z,1017.82
2017-10-28T11:03:48.381Z,1017.66
2017-10-28T11:04:57.474Z,1017.7
2017-10-28T11:06:09.839Z,1017.6
2017-10-28T11:07:19.160Z,1017.55
2017-10-28T11:08:28.200Z,1017.52
2017-10-28T11:09:37.303Z,1017.5
2017-10-28T11:10:46.583Z,1017.41
2017-10-28T11:11:55.858Z,1017.4
2017-10-28T11:13:04.929Z,1017.29
2017-10-28T11:14:14.154Z,1017.35
2017-10-28T11:15:24.113Z,1017.24
2017-10-28T11:16:33.357Z,1017.25
2017-10-28T11:17:42.775Z,1017.25
2017-10-28T11:18:51.759Z,1017.19
2017-10-28T11:20:00.501Z,1017.19
2017-10-28T11:21:09.519Z,1017.16
2017-10-28T11:22:19.152Z,1017.14
2017-10-28T11:23:28.568Z,1017.14
2017-10-28T11:24:37.469Z,1017.13
2017-10-28T11:25:46.649Z,1017.07
2017-10-28T11:26:55.587Z,1017
2017-10-28T11:28:05.986Z,1016.95
2017-10-28T11:29:14.699Z,1016.87
2017-10-28T11:30:23.516Z,1016.86
2017-10-28T11:31:32.632Z,1016.85
2017-10-28T11:32:42.027Z,1016.88
2017-10-28T11:33:50.817Z,1016.82
2017-10-28T11:34:59.942Z,1016.82
2017-10-28T11:36:09.139Z,1016.89
2017-10-28T11:37:19.202Z,1016.92
2017-10-28T11:38:28.589Z,1016.8
2017-10-28T11:39:37.664Z,1016.82
2017-10-28T11:40:46.455Z,1016.74
2017-10-28T11:41:56.372Z,1016.7
2017-10-28T11:43:05.213Z,1016.69
2017-10-28T11:44:14.239Z,1016.68
2017-10-28T11:45:23.720Z,1016.67
2017-10-28T11:46:32.719Z,1016.67
2017-10-28T11:47:42.667Z,1016.77
2017-10-28T11:48:51.501Z,1016.71
2017-10-28T11:50:00.580Z,1016.66
2017-10-28T11:51:09.426Z,1016.71
2017-10-28T11:52:18.754Z,1016.69
2017-10-28T11:53:28.069Z,1016.73
2017-10-28T11:54:37.376Z,1016.73
2017-10-28T11:55:46.686Z,1016.66
2017-10-28T11:56:55.844Z,1016.71
2017-10-28T11:58:05.420Z,1016.6
2017-10-28T11:59:15.381Z,1016.6
2017-10-28T12:00:26.305Z,1016.53
2017-10-28T12:01:35.896Z,1016.47
2017-10-28T12:02:45.840Z,1016.44
2017-10-28T12:03:55.226Z,1016.37
2017-10-28T12:05:04.728Z,1016.33
2017-10-28T12:06:14.029Z,1016.39
2017-10-28T12:07:23.155Z,1016.26
2017-10-28T12:08:32.820Z,1016.22
2017-10-28T12:09:41.943Z,1016.25
2017-10-28T12:10:51.150Z,1016.23
2017-10-28T12:12:00.766Z,1016.25
2017-10-28T12:13:10.095Z,1016.21
2017-10-28T12:14:19.422Z,1016.19
2017-10-28T12:15:30.314Z,1016.19
2017-10-28T12:16:39.933Z,1016.2
2017-10-28T12:17:48.976Z,1016.15
2017-10-28T12:18:57.879Z,1016.15
2017-10-28T12:20:07.427Z,1016.15
2017-10-28T12:21:17.024Z,1016.18
2017-10-28T12:22:26.031Z,1016.1
2017-10-28T12:23:35.608Z,1016.13
2017-10-28T12:24:46.833Z,1015.97
2017-10-28T12:25:56.532Z,1015.97
2017-10-28T12:27:05.790Z,1015.91
2017-10-28T12:28:15.661Z,1015.89
2017-10-28T12:29:25.909Z,1015.97
2017-10-28T12:30:35.512Z,1015.98
2017-10-28T12:31:45.112Z,1016.04
2017-10-28T12:32:55.054Z,1016.03
2017-10-28T12:34:04.328Z,1015.96
2017-10-28T12:35:13.985Z,1015.96
2017-10-28T12:36:22.978Z,1015.97
2017-10-28T12:37:32.977Z,1015.97
2017-10-28T12:38:42.372Z,1015.85
2017-10-28T12:39:51.833Z,1015.86
2017-10-28T12:41:01.482Z,1015.87
2017-10-28T12:42:10.928Z,1015.79
2017-10-28T12:43:20.507Z,1015.77
2017-10-28T12:44:31.267Z,1015.79
2017-10-28T12:45:42.384Z,1015.81
2017-10-28T12:46:52.819Z,1015.8
2017-10-28T12:48:03.186Z,1015.75
2017-10-28T12:49:12.629Z,1015.83
2017-10-28T12:50:21.918Z,1015.71
2017-10-28T12:51:31.235Z,1015.76
2017-10-28T12:52:40.556Z,1015.75
2017-10-28T12:53:50.088Z,1015.72
2017-10-28T12:54:59.588Z,1015.65
2017-10-28T12:56:09.628Z,1015.59
2017-10-28T12:57:19.154Z,1015.59
2017-10-28T12:58:28.167Z,1015.57
2017-10-28T12:59:37.298Z,1015.47
2017-10-28T13:00:45.982Z,1015.59
2017-10-28T13:01:55.345Z,1015.51
2017-10-28T13:03:04.583Z,1015.48
2017-10-28T13:04:13.380Z,1015.45
2017-10-28T13:05:22.266Z,1015.39
2017-10-28T13:06:31.720Z,1015.5
2017-10-28T13:07:40.392Z,1015.46
2017-10-28T13:08:49.394Z,1015.42
2017-10-28T13:09:58.402Z,1015.42
2017-10-28T13:11:08.302Z,1015.42
2017-10-28T13:12:17.861Z,1015.32
2017-10-28T13:13:26.849Z,1015.24
2017-10-28T13:14:35.573Z,1015.22
2017-10-28T13:15:44.748Z,1015.13
2017-10-28T13:16:54.191Z,1015.07
2017-10-28T13:18:03.319Z,1015.14
2017-10-28T13:19:12.831Z,1015.01
2017-10-28T13:20:23.068Z,1015.06
2017-10-28T13:21:32.125Z,1015.06
2017-10-28T13:22:40.808Z,1015.06
2017-10-28T13:23:50.218Z,1014.98
2017-10-28T13:24:59.486Z,1015.01
2017-10-28T13:26:08.873Z,1014.89
2017-10-28T13:27:17.876Z,1014.83
2017-10-28T13:28:27.596Z,1014.87
2017-10-28T13:29:36.926Z,1014.8
2017-10-28T13:30:45.637Z,1014.82
2017-10-28T13:31:54.326Z,1014.82
2017-10-28T13:33:03.302Z,1014.85
2017-10-28T13:34:12.314Z,1014.88
2017-10-28T13:35:21.334Z,1014.77
2017-10-28T13:36:30.435Z,1014.77
2017-10-28T13:37:39.124Z,1014.86
2017-10-28T13:38:47.913Z,1014.92
2017-10-28T13:39:56.938Z,1014.92
2017-10-28T13:41:06.025Z,1014.86
2017-10-28T13:42:14.765Z,1014.89
2017-10-28T13:43:24.309Z,1014.88
2017-10-28T13:44:33.354Z,1014.91
2017-10-28T13:45:42.862Z,1014.86
2017-10-28T13:46:52.060Z,1014.86
2017-10-28T13:48:01.538Z,1014.9
2017-10-28T13:49:11.319Z,1014.9
2017-10-28T13:50:20.181Z,1014.81
2017-10-28T13:51:29.349Z,1014.78
2017-10-28T13:52:38.482Z,1014.71
2017-10-28T13:53:47.265Z,1014.76
2017-10-28T13:54:56.307Z,1014.75
2017-10-28T13:56:05.302Z,1014.77
2017-10-28T13:57:14.007Z,1014.69
2017-10-28T13:58:23.032Z,1014.73
2017-10-28T13:59:32.039Z,1014.72
2017-10-28T14:00:41.708Z,1014.61